sensor_id;sensor_type;location;lat;lon;timestamp;P1;durP1;ratioP1;P2;durP2;ratioP2
16407;SDS011;8313;49.894;8.084;2023-02-01T00:01:53;5.97;;;3.80;;
16407;SDS011;8313;49.894;8.084;2023-02-01T00:04:19;5.70;;;4.73;;
16407;SDS011;8313;49.894;8.084;2023-02-01T00:06:45;3.87;;;3.23;;
16407;SDS011;8313;49.894;8.084;2023-02-01T00:09:12;4.17;;;3.57;;
16407;SDS011;8313;49.894;8.084;2023-02-01T00:11:38;3.93;;;2.97;;
16407;SDS011;8313;49.894;8.084;2023-02-01T00:14:04;3.60;;;3.30;;
16407;SDS011;8313;49.894;8.084;2023-02-01T00:16:30;5.03;;;3.50;;
16407;SDS011;8313;49.894;8.084;2023-02-01T00:18:57;4.97;;;3.20;;
16407;SDS011;8313;49.894;8.084;2023-02-01T00:21:24;5.63;;;3.83;;
16407;SDS011;8313;49.894;8.084;2023-02-01T00:23:50;4.50;;;3.80;;
16407;SDS011;8313;49.894;8.084;2023-02-01T00:26:17;6.37;;;4.30;;
16407;SDS011;8313;49.894;8.084;2023-02-01T00:28:48;6.80;;;4.47;;
16407;SDS011;8313;49.894;8.084;2023-02-01T00:31:14;9.73;;;4.53;;
16407;SDS011;8313;49.894;8.084;2023-02-01T00:33:40;4.83;;;4.20;;
16407;SDS011;8313;49.894;8.084;2023-02-01T00:36:06;7.23;;;5.50;;
16407;SDS011;8313;49.894;8.084;2023-02-01T00:38:33;5.87;;;4.13;;
16407;SDS011;8313;49.894;8.084;2023-02-01T00:41:06;6.93;;;4.70;;
16407;SDS011;8313;49.894;8.084;2023-02-01T00:43:37;6.17;;;4.80;;
16407;SDS011;8313;49.894;8.084;2023-02-01T00:46:03;4.30;;;3.83;;
16407;SDS011;8313;49.894;8.084;2023-02-01T00:48:29;4.80;;;3.40;;
16407;SDS011;8313;49.894;8.084;2023-02-01T00:50:58;6.80;;;4.83;;
16407;SDS011;8313;49.894;8.084;2023-02-01T00:53:31;6.33;;;3.80;;
16407;SDS011;8313;49.894;8.084;2023-02-01T00:55:58;7.63;;;4.90;;
16407;SDS011;8313;49.894;8.084;2023-02-01T00:58:24;5.77;;;4.27;;
16407;SDS011;8313;49.894;8.084;2023-02-01T01:03:43;5.17;;;4.00;;
16407;SDS011;8313;49.894;8.084;2023-02-01T01:06:12;4.83;;;4.30;;
16407;SDS011;8313;49.894;8.084;2023-02-01T01:08:40;4.63;;;3.70;;
16407;SDS011;8313;49.894;8.084;2023-02-01T01:13:36;4.33;;;3.93;;
16407;SDS011;8313;49.894;8.084;2023-02-01T01:16:03;9.33;;;4.90;;
16407;SDS011;8313;49.894;8.084;2023-02-01T01:18:30;6.57;;;4.50;;
16407;SDS011;8313;49.894;8.084;2023-02-01T01:20:57;4.70;;;3.60;;
16407;SDS011;8313;49.894;8.084;2023-02-01T01:23:23;6.70;;;5.20;;
16407;SDS011;8313;49.894;8.084;2023-02-01T01:25:49;6.13;;;4.60;;
16407;SDS011;8313;49.894;8.084;2023-02-01T01:28:15;5.97;;;4.70;;
16407;SDS011;8313;49.894;8.084;2023-02-01T01:30:41;6.60;;;4.90;;
16407;SDS011;8313;49.894;8.084;2023-02-01T01:33:07;7.03;;;4.20;;
16407;SDS011;8313;49.894;8.084;2023-02-01T01:35:32;5.93;;;4.37;;
16407;SDS011;8313;49.894;8.084;2023-02-01T01:37:58;6.20;;;4.33;;
16407;SDS011;8313;49.894;8.084;2023-02-01T01:40:25;7.00;;;4.57;;
16407;SDS011;8313;49.894;8.084;2023-02-01T01:42:52;10.93;;;5.20;;
16407;SDS011;8313;49.894;8.084;2023-02-01T01:45:24;6.10;;;4.27;;
16407;SDS011;8313;49.894;8.084;2023-02-01T01:47:53;6.60;;;5.20;;
16407;SDS011;8313;49.894;8.084;2023-02-01T01:53:31;6.33;;;3.57;;
16407;SDS011;8313;49.894;8.084;2023-02-01T01:56:01;6.80;;;4.50;;
16407;SDS011;8313;49.894;8.084;2023-02-01T01:58:27;6.50;;;3.80;;
16407;SDS011;8313;49.894;8.084;2023-02-01T02:00:57;6.90;;;4.30;;
16407;SDS011;8313;49.894;8.084;2023-02-01T02:03:27;5.97;;;3.67;;
16407;SDS011;8313;49.894;8.084;2023-02-01T02:05:59;7.17;;;4.83;;
16407;SDS011;8313;49.894;8.084;2023-02-01T02:08:27;6.67;;;4.80;;
16407;SDS011;8313;49.894;8.084;2023-02-01T02:10:53;7.83;;;5.00;;
16407;SDS011;8313;49.894;8.084;2023-02-01T02:13:26;12.50;;;5.70;;
16407;SDS011;8313;49.894;8.084;2023-02-01T02:18:55;6.97;;;5.10;;
16407;SDS011;8313;49.894;8.084;2023-02-01T02:27:17;6.20;;;4.43;;
16407;SDS011;8313;49.894;8.084;2023-02-01T02:30:12;5.73;;;4.53;;
16407;SDS011;8313;49.894;8.084;2023-02-01T02:38:31;9.57;;;5.10;;
16407;SDS011;8313;49.894;8.084;2023-02-01T02:46:33;5.40;;;3.57;;
16407;SDS011;8313;49.894;8.084;2023-02-01T02:49:26;8.37;;;5.60;;
16407;SDS011;8313;49.894;8.084;2023-02-01T02:54:56;7.87;;;5.10;;
16407;SDS011;8313;49.894;8.084;2023-02-01T03:00:12;5.90;;;4.10;;
16407;SDS011;8313;49.894;8.084;2023-02-01T03:03:00;7.03;;;4.37;;
16407;SDS011;8313;49.894;8.084;2023-02-01T03:05:46;6.40;;;4.03;;
16407;SDS011;8313;49.894;8.084;2023-02-01T03:08:17;5.13;;;3.93;;
16407;SDS011;8313;49.894;8.084;2023-02-01T03:16:16;6.33;;;3.90;;
16407;SDS011;8313;49.894;8.084;2023-02-01T03:19:03;4.67;;;3.53;;
16407;SDS011;8313;49.894;8.084;2023-02-01T03:21:32;7.30;;;4.07;;
16407;SDS011;8313;49.894;8.084;2023-02-01T03:24:03;5.03;;;3.80;;
16407;SDS011;8313;49.894;8.084;2023-02-01T03:26:35;7.60;;;3.43;;
16407;SDS011;8313;49.894;8.084;2023-02-01T03:29:09;5.87;;;4.27;;
16407;SDS011;8313;49.894;8.084;2023-02-01T03:31:41;5.00;;;3.60;;
16407;SDS011;8313;49.894;8.084;2023-02-01T03:34:07;5.27;;;3.83;;
16407;SDS011;8313;49.894;8.084;2023-02-01T03:36:35;5.90;;;2.97;;
16407;SDS011;8313;49.894;8.084;2023-02-01T03:39:17;5.13;;;3.77;;
16407;SDS011;8313;49.894;8.084;2023-02-01T03:41:51;4.53;;;3.47;;
16407;SDS011;8313;49.894;8.084;2023-02-01T03:44:22;5.93;;;3.77;;
16407;SDS011;8313;49.894;8.084;2023-02-01T03:47:05;5.33;;;4.40;;
16407;SDS011;8313;49.894;8.084;2023-02-01T03:49:36;4.97;;;3.53;;
16407;SDS011;8313;49.894;8.084;2023-02-01T03:52:06;7.27;;;3.70;;
16407;SDS011;8313;49.894;8.084;2023-02-01T03:54:34;4.97;;;4.03;;
16407;SDS011;8313;49.894;8.084;2023-02-01T03:57:02;9.13;;;4.27;;
16407;SDS011;8313;49.894;8.084;2023-02-01T03:59:33;4.63;;;3.33;;
16407;SDS011;8313;49.894;8.084;2023-02-01T04:01:59;5.27;;;3.43;;
16407;SDS011;8313;49.894;8.084;2023-02-01T04:04:25;6.67;;;3.87;;
16407;SDS011;8313;49.894;8.084;2023-02-01T04:06:53;5.03;;;3.60;;
16407;SDS011;8313;49.894;8.084;2023-02-01T04:09:19;3.47;;;3.10;;
16407;SDS011;8313;49.894;8.084;2023-02-01T04:11:45;3.77;;;2.70;;
16407;SDS011;8313;49.894;8.084;2023-02-01T04:14:10;6.30;;;2.70;;
16407;SDS011;8313;49.894;8.084;2023-02-01T04:16:36;4.73;;;3.40;;
16407;SDS011;8313;49.894;8.084;2023-02-01T04:19:02;4.87;;;2.83;;
16407;SDS011;8313;49.894;8.084;2023-02-01T04:21:28;4.03;;;3.10;;
16407;SDS011;8313;49.894;8.084;2023-02-01T04:23:54;4.57;;;3.00;;
16407;SDS011;8313;49.894;8.084;2023-02-01T04:26:20;3.43;;;2.70;;
16407;SDS011;8313;49.894;8.084;2023-02-01T04:28:46;5.30;;;3.00;;
16407;SDS011;8313;49.894;8.084;2023-02-01T04:31:15;5.10;;;2.80;;
16407;SDS011;8313;49.894;8.084;2023-02-01T04:33:42;3.77;;;2.70;;
16407;SDS011;8313;49.894;8.084;2023-02-01T04:36:08;7.00;;;3.40;;
16407;SDS011;8313;49.894;8.084;2023-02-01T04:38:34;3.87;;;2.40;;
16407;SDS011;8313;49.894;8.084;2023-02-01T04:41:00;4.83;;;3.47;;
16407;SDS011;8313;49.894;8.084;2023-02-01T04:43:25;2.83;;;2.53;;
16407;SDS011;8313;49.894;8.084;2023-02-01T04:45:52;7.90;;;3.40;;
16407;SDS011;8313;49.894;8.084;2023-02-01T04:48:19;9.83;;;3.40;;
16407;SDS011;8313;49.894;8.084;2023-02-01T04:50:46;4.33;;;2.33;;
16407;SDS011;8313;49.894;8.084;2023-02-01T04:53:16;5.73;;;2.60;;
16407;SDS011;8313;49.894;8.084;2023-02-01T04:55:43;2.67;;;2.47;;
16407;SDS011;8313;49.894;8.084;2023-02-01T04:58:09;3.37;;;2.50;;
16407;SDS011;8313;49.894;8.084;2023-02-01T05:00:36;8.17;;;2.83;;
16407;SDS011;8313;49.894;8.084;2023-02-01T05:03:02;4.77;;;2.83;;
16407;SDS011;8313;49.894;8.084;2023-02-01T05:05:28;2.77;;;2.17;;
16407;SDS011;8313;49.894;8.084;2023-02-01T05:07:54;3.90;;;2.03;;
16407;SDS011;8313;49.894;8.084;2023-02-01T05:10:20;3.70;;;2.03;;
16407;SDS011;8313;49.894;8.084;2023-02-01T05:12:46;1.67;;;1.30;;
16407;SDS011;8313;49.894;8.084;2023-02-01T05:15:30;2.63;;;1.77;;
16407;SDS011;8313;49.894;8.084;2023-02-01T05:17:57;1.20;;;1.13;;
16407;SDS011;8313;49.894;8.084;2023-02-01T05:20:23;5.17;;;1.50;;
16407;SDS011;8313;49.894;8.084;2023-02-01T05:22:50;1.50;;;0.87;;
16407;SDS011;8313;49.894;8.084;2023-02-01T05:25:16;2.30;;;1.13;;
16407;SDS011;8313;49.894;8.084;2023-02-01T05:27:42;1.70;;;1.27;;
16407;SDS011;8313;49.894;8.084;2023-02-01T05:30:08;1.13;;;1.03;;
16407;SDS011;8313;49.894;8.084;2023-02-01T05:32:34;2.47;;;1.23;;
16407;SDS011;8313;49.894;8.084;2023-02-01T05:35:00;2.60;;;1.40;;
16407;SDS011;8313;49.894;8.084;2023-02-01T05:37:25;1.60;;;1.33;;
16407;SDS011;8313;49.894;8.084;2023-02-01T05:39:51;2.53;;;1.40;;
16407;SDS011;8313;49.894;8.084;2023-02-01T05:42:17;1.87;;;1.67;;
16407;SDS011;8313;49.894;8.084;2023-02-01T05:44:43;1.50;;;1.10;;
16407;SDS011;8313;49.894;8.084;2023-02-01T05:47:08;1.10;;;1.00;;
16407;SDS011;8313;49.894;8.084;2023-02-01T05:49:34;4.93;;;0.90;;
16407;SDS011;8313;49.894;8.084;2023-02-01T05:52:00;1.30;;;0.90;;
16407;SDS011;8313;49.894;8.084;2023-02-01T05:54:26;5.03;;;1.40;;
16407;SDS011;8313;49.894;8.084;2023-02-01T05:56:52;2.67;;;1.20;;
16407;SDS011;8313;49.894;8.084;2023-02-01T05:59:17;2.10;;;1.80;;
16407;SDS011;8313;49.894;8.084;2023-02-01T06:01:43;2.87;;;1.60;;
16407;SDS011;8313;49.894;8.084;2023-02-01T06:04:09;1.53;;;1.40;;
16407;SDS011;8313;49.894;8.084;2023-02-01T06:06:34;1.90;;;1.47;;
16407;SDS011;8313;49.894;8.084;2023-02-01T06:09:02;1.53;;;1.40;;
16407;SDS011;8313;49.894;8.084;2023-02-01T06:11:28;3.87;;;2.47;;
16407;SDS011;8313;49.894;8.084;2023-02-01T06:13:54;3.33;;;2.20;;
16407;SDS011;8313;49.894;8.084;2023-02-01T06:16:20;2.63;;;1.87;;
16407;SDS011;8313;49.894;8.084;2023-02-01T06:18:46;1.80;;;1.70;;
16407;SDS011;8313;49.894;8.084;2023-02-01T06:21:12;2.50;;;2.23;;
16407;SDS011;8313;49.894;8.084;2023-02-01T06:23:49;1.90;;;1.57;;
16407;SDS011;8313;49.894;8.084;2023-02-01T06:26:18;4.40;;;1.63;;
16407;SDS011;8313;49.894;8.084;2023-02-01T06:28:45;3.33;;;2.67;;
16407;SDS011;8313;49.894;8.084;2023-02-01T06:31:10;4.10;;;2.00;;
16407;SDS011;8313;49.894;8.084;2023-02-01T06:33:37;3.47;;;1.90;;
16407;SDS011;8313;49.894;8.084;2023-02-01T06:36:04;2.37;;;1.97;;
16407;SDS011;8313;49.894;8.084;2023-02-01T06:38:31;5.70;;;3.03;;
16407;SDS011;8313;49.894;8.084;2023-02-01T06:40:59;2.37;;;2.17;;
16407;SDS011;8313;49.894;8.084;2023-02-01T06:43:26;15.63;;;2.80;;
16407;SDS011;8313;49.894;8.084;2023-02-01T06:45:52;4.43;;;2.43;;
16407;SDS011;8313;49.894;8.084;2023-02-01T06:48:18;3.93;;;2.30;;
16407;SDS011;8313;49.894;8.084;2023-02-01T06:50:44;1.70;;;1.60;;
16407;SDS011;8313;49.894;8.084;2023-02-01T06:53:10;2.53;;;2.33;;
16407;SDS011;8313;49.894;8.084;2023-02-01T06:55:35;4.53;;;2.40;;
16407;SDS011;8313;49.894;8.084;2023-02-01T06:58:01;3.87;;;2.70;;
16407;SDS011;8313;49.894;8.084;2023-02-01T07:00:27;6.33;;;3.13;;
16407;SDS011;8313;49.894;8.084;2023-02-01T07:02:53;5.30;;;2.63;;
16407;SDS011;8313;49.894;8.084;2023-02-01T07:05:19;8.87;;;2.80;;
16407;SDS011;8313;49.894;8.084;2023-02-01T07:07:46;4.80;;;2.93;;
16407;SDS011;8313;49.894;8.084;2023-02-01T07:10:12;5.87;;;2.83;;
16407;SDS011;8313;49.894;8.084;2023-02-01T07:12:38;5.47;;;2.50;;
16407;SDS011;8313;49.894;8.084;2023-02-01T07:15:04;5.47;;;2.80;;
16407;SDS011;8313;49.894;8.084;2023-02-01T07:17:31;12.73;;;4.17;;
16407;SDS011;8313;49.894;8.084;2023-02-01T07:19:56;4.93;;;2.57;;
16407;SDS011;8313;49.894;8.084;2023-02-01T07:22:25;5.40;;;3.10;;
16407;SDS011;8313;49.894;8.084;2023-02-01T07:24:51;4.67;;;2.27;;
16407;SDS011;8313;49.894;8.084;2023-02-01T07:27:16;3.47;;;2.57;;
16407;SDS011;8313;49.894;8.084;2023-02-01T07:29:42;7.10;;;2.43;;
16407;SDS011;8313;49.894;8.084;2023-02-01T07:32:08;2.70;;;2.30;;
16407;SDS011;8313;49.894;8.084;2023-02-01T07:34:33;8.43;;;2.57;;
16407;SDS011;8313;49.894;8.084;2023-02-01T07:36:59;5.47;;;3.10;;
16407;SDS011;8313;49.894;8.084;2023-02-01T07:39:25;6.83;;;2.43;;
16407;SDS011;8313;49.894;8.084;2023-02-01T07:41:53;4.43;;;2.67;;
16407;SDS011;8313;49.894;8.084;2023-02-01T07:44:19;6.87;;;2.80;;
16407;SDS011;8313;49.894;8.084;2023-02-01T07:46:48;5.77;;;2.60;;
16407;SDS011;8313;49.894;8.084;2023-02-01T07:49:14;2.90;;;2.50;;
16407;SDS011;8313;49.894;8.084;2023-02-01T07:51:40;4.17;;;2.63;;
16407;SDS011;8313;49.894;8.084;2023-02-01T07:54:05;9.50;;;2.53;;
16407;SDS011;8313;49.894;8.084;2023-02-01T07:56:31;6.97;;;3.53;;
16407;SDS011;8313;49.894;8.084;2023-02-01T07:58:57;7.87;;;2.27;;
16407;SDS011;8313;49.894;8.084;2023-02-01T08:01:25;13.10;;;3.63;;
16407;SDS011;8313;49.894;8.084;2023-02-01T08:03:53;5.57;;;2.17;;
16407;SDS011;8313;49.894;8.084;2023-02-01T08:06:21;2.93;;;2.30;;
16407;SDS011;8313;49.894;8.084;2023-02-01T08:08:48;3.60;;;2.60;;
16407;SDS011;8313;49.894;8.084;2023-02-01T08:11:15;5.87;;;2.30;;
16407;SDS011;8313;49.894;8.084;2023-02-01T08:13:41;8.90;;;2.57;;
16407;SDS011;8313;49.894;8.084;2023-02-01T08:16:08;5.30;;;2.23;;
16407;SDS011;8313;49.894;8.084;2023-02-01T08:18:35;5.67;;;3.60;;
16407;SDS011;8313;49.894;8.084;2023-02-01T08:21:12;7.43;;;3.60;;
16407;SDS011;8313;49.894;8.084;2023-02-01T08:23:42;7.40;;;2.40;;
16407;SDS011;8313;49.894;8.084;2023-02-01T08:26:10;4.83;;;2.97;;
16407;SDS011;8313;49.894;8.084;2023-02-01T08:28:47;3.60;;;2.60;;
16407;SDS011;8313;49.894;8.084;2023-02-01T08:31:15;10.50;;;2.70;;
16407;SDS011;8313;49.894;8.084;2023-02-01T08:33:43;4.67;;;2.30;;
16407;SDS011;8313;49.894;8.084;2023-02-01T08:36:12;2.33;;;1.70;;
16407;SDS011;8313;49.894;8.084;2023-02-01T08:38:40;5.17;;;2.13;;
16407;SDS011;8313;49.894;8.084;2023-02-01T08:41:06;7.90;;;2.97;;
16407;SDS011;8313;49.894;8.084;2023-02-01T08:43:36;7.03;;;2.10;;
16407;SDS011;8313;49.894;8.084;2023-02-01T08:46:03;2.20;;;2.00;;
16407;SDS011;8313;49.894;8.084;2023-02-01T08:48:29;8.90;;;3.60;;
16407;SDS011;8313;49.894;8.084;2023-02-01T08:50:55;3.97;;;2.40;;
16407;SDS011;8313;49.894;8.084;2023-02-01T08:53:21;2.60;;;1.70;;
16407;SDS011;8313;49.894;8.084;2023-02-01T08:55:47;10.40;;;2.43;;
16407;SDS011;8313;49.894;8.084;2023-02-01T08:58:14;4.63;;;2.07;;
16407;SDS011;8313;49.894;8.084;2023-02-01T09:00:42;2.03;;;1.90;;
16407;SDS011;8313;49.894;8.084;2023-02-01T09:03:09;6.50;;;2.10;;
16407;SDS011;8313;49.894;8.084;2023-02-01T09:05:36;5.90;;;2.20;;
16407;SDS011;8313;49.894;8.084;2023-02-01T09:08:02;6.67;;;1.40;;
16407;SDS011;8313;49.894;8.084;2023-02-01T09:10:28;5.13;;;1.80;;
16407;SDS011;8313;49.894;8.084;2023-02-01T09:12:53;9.10;;;2.13;;
16407;SDS011;8313;49.894;8.084;2023-02-01T09:15:19;2.80;;;1.87;;
16407;SDS011;8313;49.894;8.084;2023-02-01T09:17:44;3.27;;;2.00;;
16407;SDS011;8313;49.894;8.084;2023-02-01T09:20:10;3.80;;;1.73;;
16407;SDS011;8313;49.894;8.084;2023-02-01T09:22:36;2.47;;;2.17;;
16407;SDS011;8313;49.894;8.084;2023-02-01T09:25:02;10.60;;;1.90;;
16407;SDS011;8313;49.894;8.084;2023-02-01T09:27:28;8.33;;;2.10;;
16407;SDS011;8313;49.894;8.084;2023-02-01T09:29:53;3.63;;;2.00;;
16407;SDS011;8313;49.894;8.084;2023-02-01T09:32:20;2.90;;;1.67;;
16407;SDS011;8313;49.894;8.084;2023-02-01T09:34:47;4.57;;;1.77;;
16407;SDS011;8313;49.894;8.084;2023-02-01T09:37:13;2.40;;;1.50;;
16407;SDS011;8313;49.894;8.084;2023-02-01T09:39:39;4.37;;;2.40;;
16407;SDS011;8313;49.894;8.084;2023-02-01T09:47:28;6.70;;;1.73;;
16407;SDS011;8313;49.894;8.084;2023-02-01T09:52:23;3.40;;;1.70;;
16407;SDS011;8313;49.894;8.084;2023-02-01T09:55:07;4.33;;;2.47;;
16407;SDS011;8313;49.894;8.084;2023-02-01T10:00:15;6.47;;;2.20;;
16407;SDS011;8313;49.894;8.084;2023-02-01T10:02:48;2.43;;;2.20;;
16407;SDS011;8313;49.894;8.084;2023-02-01T10:05:16;4.50;;;1.60;;
16407;SDS011;8313;49.894;8.084;2023-02-01T10:08:00;4.97;;;2.30;;
16407;SDS011;8313;49.894;8.084;2023-02-01T10:19:23;3.83;;;2.37;;
16407;SDS011;8313;49.894;8.084;2023-02-01T10:22:00;9.43;;;2.43;;
16407;SDS011;8313;49.894;8.084;2023-02-01T10:27:34;11.87;;;2.37;;
16407;SDS011;8313;49.894;8.084;2023-02-01T10:30:21;16.90;;;7.30;;
16407;SDS011;8313;49.894;8.084;2023-02-01T10:32:48;8.93;;;5.50;;
16407;SDS011;8313;49.894;8.084;2023-02-01T10:35:27;10.27;;;4.07;;
16407;SDS011;8313;49.894;8.084;2023-02-01T10:37:58;13.53;;;2.87;;
16407;SDS011;8313;49.894;8.084;2023-02-01T10:40:27;7.23;;;2.37;;
16407;SDS011;8313;49.894;8.084;2023-02-01T10:42:53;7.57;;;4.03;;
16407;SDS011;8313;49.894;8.084;2023-02-01T10:45:22;4.93;;;3.47;;
16407;SDS011;8313;49.894;8.084;2023-02-01T10:47:51;7.13;;;2.40;;
16407;SDS011;8313;49.894;8.084;2023-02-01T10:55:56;7.60;;;1.93;;
16407;SDS011;8313;49.894;8.084;2023-02-01T10:58:29;2.83;;;1.40;;
16407;SDS011;8313;49.894;8.084;2023-02-01T11:01:04;3.93;;;1.97;;
16407;SDS011;8313;49.894;8.084;2023-02-01T11:08:46;7.60;;;2.47;;
16407;SDS011;8313;49.894;8.084;2023-02-01T11:11:18;3.57;;;1.93;;
16407;SDS011;8313;49.894;8.084;2023-02-01T11:13:44;8.30;;;2.40;;
16407;SDS011;8313;49.894;8.084;2023-02-01T11:16:32;8.53;;;2.17;;
16407;SDS011;8313;49.894;8.084;2023-02-01T11:19:00;4.40;;;2.53;;
16407;SDS011;8313;49.894;8.084;2023-02-01T11:21:26;4.83;;;2.67;;
16407;SDS011;8313;49.894;8.084;2023-02-01T11:23:53;6.80;;;2.67;;
16407;SDS011;8313;49.894;8.084;2023-02-01T11:26:23;6.90;;;2.40;;
16407;SDS011;8313;49.894;8.084;2023-02-01T11:28:58;7.33;;;2.43;;
16407;SDS011;8313;49.894;8.084;2023-02-01T11:31:34;4.63;;;2.73;;
16407;SDS011;8313;49.894;8.084;2023-02-01T11:34:07;7.37;;;2.97;;
16407;SDS011;8313;49.894;8.084;2023-02-01T11:36:39;2.90;;;2.43;;
16407;SDS011;8313;49.894;8.084;2023-02-01T11:41:34;10.40;;;6.13;;
16407;SDS011;8313;49.894;8.084;2023-02-01T11:44:15;24.67;;;10.87;;
16407;SDS011;8313;49.894;8.084;2023-02-01T11:46:46;17.20;;;9.07;;
16407;SDS011;8313;49.894;8.084;2023-02-01T11:57:04;9.80;;;6.20;;
16407;SDS011;8313;49.894;8.084;2023-02-01T12:02:51;3.63;;;2.37;;
16407;SDS011;8313;49.894;8.084;2023-02-01T12:08:34;4.03;;;2.40;;
16407;SDS011;8313;49.894;8.084;2023-02-01T12:21:31;4.80;;;1.73;;
16407;SDS011;8313;49.894;8.084;2023-02-01T12:24:23;2.20;;;1.93;;
16407;SDS011;8313;49.894;8.084;2023-02-01T12:32:57;2.90;;;2.07;;
16407;SDS011;8313;49.894;8.084;2023-02-01T12:46:41;9.13;;;1.97;;
16407;SDS011;8313;49.894;8.084;2023-02-01T12:49:28;3.00;;;1.87;;
16407;SDS011;8313;49.894;8.084;2023-02-01T12:52:05;3.77;;;1.90;;
16407;SDS011;8313;49.894;8.084;2023-02-01T12:54:39;3.43;;;1.87;;
16407;SDS011;8313;49.894;8.084;2023-02-01T12:57:14;9.00;;;2.13;;
16407;SDS011;8313;49.894;8.084;2023-02-01T13:00:12;4.37;;;2.30;;
16407;SDS011;8313;49.894;8.084;2023-02-01T13:02:42;5.33;;;3.50;;
16407;SDS011;8313;49.894;8.084;2023-02-01T13:05:22;7.60;;;5.00;;
16407;SDS011;8313;49.894;8.084;2023-02-01T13:10:46;3.20;;;2.20;;
16407;SDS011;8313;49.894;8.084;2023-02-01T13:13:22;5.57;;;2.23;;
16407;SDS011;8313;49.894;8.084;2023-02-01T13:18:49;4.10;;;1.57;;
16407;SDS011;8313;49.894;8.084;2023-02-01T13:21:23;6.63;;;1.90;;
16407;SDS011;8313;49.894;8.084;2023-02-01T13:23:52;10.60;;;2.80;;
16407;SDS011;8313;49.894;8.084;2023-02-01T13:26:18;6.97;;;1.70;;
16407;SDS011;8313;49.894;8.084;2023-02-01T13:28:45;2.40;;;1.93;;
16407;SDS011;8313;49.894;8.084;2023-02-01T13:40:30;7.00;;;2.03;;
16407;SDS011;8313;49.894;8.084;2023-02-01T13:43:00;5.93;;;1.90;;
16407;SDS011;8313;49.894;8.084;2023-02-01T13:45:31;5.73;;;2.33;;
16407;SDS011;8313;49.894;8.084;2023-02-01T13:48:01;5.00;;;2.70;;
16407;SDS011;8313;49.894;8.084;2023-02-01T13:58:22;2.73;;;1.93;;
16407;SDS011;8313;49.894;8.084;2023-02-01T14:15:21;4.03;;;2.37;;
16407;SDS011;8313;49.894;8.084;2023-02-01T14:17:49;6.23;;;2.27;;
16407;SDS011;8313;49.894;8.084;2023-02-01T14:23:15;15.57;;;2.47;;
16407;SDS011;8313;49.894;8.084;2023-02-01T14:25:44;11.10;;;2.63;;
16407;SDS011;8313;49.894;8.084;2023-02-01T14:28:12;3.00;;;1.53;;
16407;SDS011;8313;49.894;8.084;2023-02-01T14:30:51;9.50;;;1.83;;
16407;SDS011;8313;49.894;8.084;2023-02-01T14:33:20;2.77;;;1.93;;
16407;SDS011;8313;49.894;8.084;2023-02-01T14:38:30;2.27;;;1.33;;
16407;SDS011;8313;49.894;8.084;2023-02-01T14:41:10;5.07;;;2.23;;
16407;SDS011;8313;49.894;8.084;2023-02-01T14:52:40;3.13;;;2.07;;
16407;SDS011;8313;49.894;8.084;2023-02-01T14:55:13;5.20;;;1.77;;
16407;SDS011;8313;49.894;8.084;2023-02-01T14:57:41;9.37;;;2.53;;
16407;SDS011;8313;49.894;8.084;2023-02-01T15:02:52;7.17;;;2.23;;
16407;SDS011;8313;49.894;8.084;2023-02-01T15:05:23;4.87;;;2.40;;
16407;SDS011;8313;49.894;8.084;2023-02-01T15:07:51;5.33;;;2.07;;
16407;SDS011;8313;49.894;8.084;2023-02-01T15:10:18;4.13;;;2.00;;
16407;SDS011;8313;49.894;8.084;2023-02-01T15:12:45;7.67;;;2.30;;
16407;SDS011;8313;49.894;8.084;2023-02-01T15:15:21;9.83;;;2.27;;
16407;SDS011;8313;49.894;8.084;2023-02-01T15:17:56;3.17;;;2.57;;
16407;SDS011;8313;49.894;8.084;2023-02-01T15:25:35;5.40;;;2.50;;
16407;SDS011;8313;49.894;8.084;2023-02-01T15:28:03;9.43;;;2.80;;
16407;SDS011;8313;49.894;8.084;2023-02-01T15:30:31;2.37;;;2.00;;
16407;SDS011;8313;49.894;8.084;2023-02-01T15:35:48;10.00;;;3.50;;
16407;SDS011;8313;49.894;8.084;2023-02-01T15:43:43;4.90;;;1.80;;
16407;SDS011;8313;49.894;8.084;2023-02-01T15:46:36;3.40;;;2.30;;
16407;SDS011;8313;49.894;8.084;2023-02-01T15:49:04;6.70;;;3.10;;
16407;SDS011;8313;49.894;8.084;2023-02-01T15:51:43;12.40;;;4.27;;
16407;SDS011;8313;49.894;8.084;2023-02-01T15:54:17;7.57;;;2.77;;
16407;SDS011;8313;49.894;8.084;2023-02-01T15:56:52;3.63;;;2.33;;
16407;SDS011;8313;49.894;8.084;2023-02-01T15:59:22;12.83;;;2.70;;
16407;SDS011;8313;49.894;8.084;2023-02-01T16:01:53;16.50;;;4.50;;
16407;SDS011;8313;49.894;8.084;2023-02-01T16:06:49;3.93;;;3.30;;
16407;SDS011;8313;49.894;8.084;2023-02-01T16:09:17;4.37;;;1.77;;
16407;SDS011;8313;49.894;8.084;2023-02-01T16:14:27;2.80;;;2.17;;
16407;SDS011;8313;49.894;8.084;2023-02-01T16:16:54;6.80;;;1.87;;
16407;SDS011;8313;49.894;8.084;2023-02-01T16:19:21;1.50;;;1.27;;
16407;SDS011;8313;49.894;8.084;2023-02-01T16:21:52;5.13;;;1.80;;
16407;SDS011;8313;49.894;8.084;2023-02-01T16:24:21;8.50;;;2.80;;
16407;SDS011;8313;49.894;8.084;2023-02-01T16:26:49;9.83;;;2.33;;
16407;SDS011;8313;49.894;8.084;2023-02-01T16:29:15;3.40;;;1.97;;
16407;SDS011;8313;49.894;8.084;2023-02-01T16:31:41;6.57;;;2.40;;
16407;SDS011;8313;49.894;8.084;2023-02-01T16:34:13;6.43;;;1.97;;
16407;SDS011;8313;49.894;8.084;2023-02-01T16:36:42;7.63;;;2.00;;
16407;SDS011;8313;49.894;8.084;2023-02-01T16:39:10;2.40;;;2.00;;
16407;SDS011;8313;49.894;8.084;2023-02-01T16:41:37;6.00;;;2.37;;
16407;SDS011;8313;49.894;8.084;2023-02-01T16:44:04;7.30;;;2.33;;
16407;SDS011;8313;49.894;8.084;2023-02-01T16:46:32;6.47;;;2.40;;
16407;SDS011;8313;49.894;8.084;2023-02-01T16:49:00;6.93;;;3.90;;
16407;SDS011;8313;49.894;8.084;2023-02-01T16:51:29;4.70;;;3.53;;
16407;SDS011;8313;49.894;8.084;2023-02-01T16:53:57;9.20;;;4.80;;
16407;SDS011;8313;49.894;8.084;2023-02-01T16:56:31;4.43;;;2.57;;
16407;SDS011;8313;49.894;8.084;2023-02-01T16:58:58;4.20;;;2.30;;
16407;SDS011;8313;49.894;8.084;2023-02-01T17:01:24;6.00;;;2.27;;
16407;SDS011;8313;49.894;8.084;2023-02-01T17:03:50;2.47;;;2.27;;
16407;SDS011;8313;49.894;8.084;2023-02-01T17:06:18;9.63;;;6.87;;
16407;SDS011;8313;49.894;8.084;2023-02-01T17:08:47;48.60;;;29.57;;
16407;SDS011;8313;49.894;8.084;2023-02-01T17:11:16;45.23;;;28.20;;
16407;SDS011;8313;49.894;8.084;2023-02-01T17:13:42;42.10;;;22.97;;
16407;SDS011;8313;49.894;8.084;2023-02-01T17:18:59;35.13;;;24.93;;
16407;SDS011;8313;49.894;8.084;2023-02-01T17:21:29;26.30;;;16.50;;
16407;SDS011;8313;49.894;8.084;2023-02-01T17:23:59;22.77;;;7.67;;
16407;SDS011;8313;49.894;8.084;2023-02-01T17:26:26;8.90;;;2.90;;
16407;SDS011;8313;49.894;8.084;2023-02-01T17:28:51;5.17;;;2.40;;
16407;SDS011;8313;49.894;8.084;2023-02-01T17:31:17;7.63;;;2.77;;
16407;SDS011;8313;49.894;8.084;2023-02-01T17:33:43;7.77;;;2.83;;
16407;SDS011;8313;49.894;8.084;2023-02-01T17:36:13;4.60;;;2.30;;
16407;SDS011;8313;49.894;8.084;2023-02-01T17:38:42;2.80;;;2.33;;
16407;SDS011;8313;49.894;8.084;2023-02-01T17:41:09;2.70;;;1.80;;
16407;SDS011;8313;49.894;8.084;2023-02-01T17:43:36;4.40;;;1.90;;
16407;SDS011;8313;49.894;8.084;2023-02-01T17:48:42;12.83;;;2.50;;
16407;SDS011;8313;49.894;8.084;2023-02-01T17:51:13;8.27;;;2.33;;
16407;SDS011;8313;49.894;8.084;2023-02-01T17:53:44;11.53;;;2.47;;
16407;SDS011;8313;49.894;8.084;2023-02-01T17:56:18;7.37;;;1.90;;
16407;SDS011;8313;49.894;8.084;2023-02-01T17:58:46;4.30;;;2.23;;
16407;SDS011;8313;49.894;8.084;2023-02-01T18:01:17;6.30;;;2.67;;
16407;SDS011;8313;49.894;8.084;2023-02-01T18:03:47;3.97;;;2.10;;
16407;SDS011;8313;49.894;8.084;2023-02-01T18:06:17;2.77;;;1.90;;
16407;SDS011;8313;49.894;8.084;2023-02-01T18:08:44;7.83;;;3.43;;
16407;SDS011;8313;49.894;8.084;2023-02-01T18:11:12;6.60;;;1.90;;
16407;SDS011;8313;49.894;8.084;2023-02-01T18:13:39;5.53;;;2.43;;
16407;SDS011;8313;49.894;8.084;2023-02-01T18:16:05;5.73;;;2.87;;
16407;SDS011;8313;49.894;8.084;2023-02-01T18:18:30;6.43;;;2.43;;
16407;SDS011;8313;49.894;8.084;2023-02-01T18:20:58;5.43;;;2.40;;
16407;SDS011;8313;49.894;8.084;2023-02-01T18:23:24;4.30;;;2.17;;
16407;SDS011;8313;49.894;8.084;2023-02-01T18:25:50;10.63;;;2.23;;
16407;SDS011;8313;49.894;8.084;2023-02-01T18:28:16;3.87;;;2.23;;